createdAt,value
2017-10-21T00:00:38.940Z,11.1
2017-10-21T00:01:41.381Z,11.1
2017-10-21T00:02:43.812Z,11.1
2017-10-21T00:03:46.599Z,11.1
2017-10-21T00:04:49.021Z,11.1
2017-10-21T00:05:51.460Z,11.1
2017-10-21T00:06:53.897Z,11.1
2017-10-21T00:07:56.427Z,11.1
2017-10-21T00:08:58.857Z,11.1
2017-10-21T00:10:01.289Z,11.1
2017-10-21T00:11:03.711Z,11.1
2017-10-21T00:12:06.148Z,11.1
2017-10-21T00:13:08.576Z,11.1
2017-10-21T00:14:11.006Z,11.1
2017-10-21T00:15:13.787Z,11.1
2017-10-21T00:16:16.220Z,11.1
2017-10-21T00:17:18.649Z,11.1
2017-10-21T00:18:21.091Z,11.1
2017-10-21T00:19:23.518Z,11.1
2017-10-21T00:20:25.965Z,11.1
2017-10-21T00:21:28.387Z,11.2
2017-10-21T00:22:30.817Z,11.1
2017-10-21T00:23:33.244Z,11.1
2017-10-21T00:24:35.681Z,11.1
2017-10-21T00:25:38.089Z,11
2017-10-21T00:26:40.531Z,11.1
2017-10-21T00:27:42.954Z,11.1
2017-10-21T00:28:45.775Z,11.1
2017-10-21T00:29:48.201Z,11.1
2017-10-21T00:30:51.010Z,11.1
2017-10-21T00:31:53.442Z,11.1
2017-10-21T00:32:56.213Z,11.1
2017-10-21T00:33:58.641Z,11.1
2017-10-21T00:35:01.067Z,11.1
2017-10-21T00:36:03.839Z,11.2
2017-10-21T00:37:06.278Z,11.2
2017-10-21T00:38:08.699Z,11.1
2017-10-21T00:39:11.133Z,11.1
2017-10-21T00:40:13.568Z,11.2
2017-10-21T00:41:15.994Z,11.2
2017-10-21T00:42:18.426Z,11.2
2017-10-21T00:43:20.866Z,11.2
2017-10-21T00:44:23.278Z,11.2
2017-10-21T00:45:25.706Z,11.2
2017-10-21T00:46:28.139Z,11.2
2017-10-21T00:47:30.561Z,11.2
2017-10-21T00:48:32.993Z,11.2
2017-10-21T00:49:35.427Z,11.2
2017-10-21T00:50:37.897Z,11.2
2017-10-21T00:51:40.329Z,11.2
2017-10-21T00:52:42.750Z,11.2
2017-10-21T00:53:45.181Z,11.2
2017-10-21T00:54:47.615Z,11.2
2017-10-21T00:55:50.048Z,11.2
2017-10-21T00:56:52.468Z,11.2
2017-10-21T00:57:54.908Z,11.2
2017-10-21T00:58:57.687Z,11.2
2017-10-21T01:00:00.107Z,11.2
2017-10-21T01:01:02.530Z,11.2
2017-10-21T01:02:04.973Z,11.2
2017-10-21T01:03:07.399Z,11.2
2017-10-21T01:04:09.824Z,11.2
2017-10-21T01:05:12.601Z,11.1
2017-10-21T01:06:15.029Z,11.2
2017-10-21T01:07:17.459Z,11.2
2017-10-21T01:08:19.900Z,11.1
2017-10-21T01:09:22.321Z,11.2
2017-10-21T01:10:24.746Z,11.1
2017-10-21T01:11:27.189Z,11.1
2017-10-21T01:12:29.614Z,11.1
2017-10-21T01:13:32.044Z,11.1
2017-10-21T01:14:34.475Z,11.1
2017-10-21T01:15:36.902Z,11.1
2017-10-21T01:16:39.340Z,11.2
2017-10-21T01:17:41.767Z,11.1
2017-10-21T01:18:44.190Z,11.1
2017-10-21T01:19:46.621Z,11.2
2017-10-21T01:20:49.049Z,11.1
2017-10-21T01:21:51.503Z,11.1
2017-10-21T01:22:53.936Z,11.1
2017-10-21T01:23:56.347Z,11.1
2017-10-21T01:24:58.789Z,11.1
2017-10-21T01:26:01.224Z,11.1
2017-10-21T01:27:03.654Z,11.1
2017-10-21T01:28:06.095Z,11.1
2017-10-21T01:29:08.505Z,11.1
2017-10-21T01:30:11.292Z,11.1
2017-10-21T01:31:14.100Z,11.1
2017-10-21T01:32:16.508Z,11.1
2017-10-21T01:33:18.952Z,11.1
2017-10-21T01:34:21.743Z,11.1
2017-10-21T01:35:24.172Z,11.1
2017-10-21T01:36:26.604Z,11.1
2017-10-21T01:37:29.379Z,11.1
2017-10-21T01:38:31.813Z,11.1
2017-10-21T01:39:34.247Z,11.1
2017-10-21T01:40:36.666Z,11.1
2017-10-21T01:41:39.093Z,11.1
2017-10-21T01:42:41.521Z,11.1
2017-10-21T01:43:43.945Z,11.1
2017-10-21T01:44:46.367Z,11.1
2017-10-21T01:45:48.796Z,11.1
2017-10-21T01:46:51.576Z,11.1
2017-10-21T01:47:54.005Z,11.1
2017-10-21T01:48:56.436Z,11.1
2017-10-21T01:49:58.860Z,11.1
2017-10-21T01:51:01.303Z,11.1
2017-10-21T01:52:03.728Z,11.1
2017-10-21T01:53:06.159Z,11.1
2017-10-21T01:54:08.601Z,11.1
2017-10-21T01:55:11.033Z,11.1
2017-10-21T01:56:13.455Z,11.2
2017-10-21T01:57:15.884Z,11.2
2017-10-21T01:58:18.308Z,11.1
2017-10-21T01:59:21.103Z,11.1
2017-10-21T02:00:23.536Z,11.1
2017-10-21T02:01:25.965Z,11.1
2017-10-21T02:02:28.397Z,11.1
2017-10-21T02:03:30.828Z,11.1
2017-10-21T02:04:33.252Z,11.2
2017-10-21T02:05:35.694Z,11.2
2017-10-21T02:06:38.106Z,11.2
2017-10-21T02:07:40.547Z,11.2
2017-10-21T02:08:42.972Z,11.1
2017-10-21T02:09:45.396Z,11.1
2017-10-21T02:10:47.830Z,11.1
2017-10-21T02:11:50.255Z,11.1
2017-10-21T02:12:52.679Z,11.1
2017-10-21T02:13:55.120Z,11
2017-10-21T02:14:57.539Z,11
2017-10-21T02:15:59.978Z,11
2017-10-21T02:17:02.405Z,11
2017-10-21T02:18:04.821Z,11
2017-10-21T02:19:07.256Z,11.1
2017-10-21T02:20:09.685Z,11
2017-10-21T02:21:12.460Z,11
2017-10-21T02:22:14.903Z,11
2017-10-21T02:23:17.312Z,11
2017-10-21T02:24:19.753Z,11
2017-10-21T02:25:22.200Z,11
2017-10-21T02:26:24.618Z,11
2017-10-21T02:27:27.046Z,11
2017-10-21T02:28:29.834Z,11
2017-10-21T02:29:32.272Z,11
2017-10-21T02:30:34.688Z,11
2017-10-21T02:31:37.133Z,11
2017-10-21T02:32:39.568Z,11
2017-10-21T02:33:42.001Z,11
2017-10-21T02:34:44.430Z,11
2017-10-21T02:35:46.855Z,11
2017-10-21T02:36:49.282Z,11
2017-10-21T02:37:51.709Z,11
2017-10-21T02:38:54.125Z,11
2017-10-21T02:39:56.560Z,11
2017-10-21T02:40:58.984Z,11
2017-10-21T02:42:01.419Z,11
2017-10-21T02:43:03.850Z,11
2017-10-21T02:44:06.276Z,11
2017-10-21T02:45:08.706Z,11
2017-10-21T02:46:11.501Z,11
2017-10-21T02:47:13.926Z,11
2017-10-21T02:48:16.366Z,11
2017-10-21T02:49:18.785Z,11
2017-10-21T02:50:21.217Z,11
2017-10-21T02:51:23.652Z,11
2017-10-21T02:52:26.085Z,11
2017-10-21T02:53:28.519Z,11
2017-10-21T02:54:30.935Z,11
2017-10-21T02:55:33.716Z,11
2017-10-21T02:56:36.156Z,11
2017-10-21T02:57:38.585Z,11
2017-10-21T02:58:40.998Z,11
2017-10-21T02:59:43.439Z,11
2017-10-21T03:00:46.217Z,11
2017-10-21T03:01:48.646Z,11
2017-10-21T03:02:51.075Z,11
2017-10-21T03:03:53.521Z,11
2017-10-21T03:04:55.947Z,11
2017-10-21T03:05:58.719Z,11
2017-10-21T03:07:01.145Z,11
2017-10-21T03:08:03.570Z,10.9
2017-10-21T03:09:05.998Z,11
2017-10-21T03:10:08.427Z,11
2017-10-21T03:11:10.855Z,10.9
2017-10-21T03:12:13.639Z,10.9
2017-10-21T03:13:16.080Z,11
2017-10-21T03:14:18.506Z,11
2017-10-21T03:15:20.938Z,10.9
2017-10-21T03:16:23.372Z,10.9
2017-10-21T03:17:25.794Z,11
2017-10-21T03:18:28.220Z,11
2017-10-21T03:19:31.006Z,11
2017-10-21T03:20:33.430Z,11
2017-10-21T03:21:35.854Z,11
2017-10-21T03:22:38.275Z,11
2017-10-21T03:23:40.698Z,11
2017-10-21T03:24:43.133Z,11
2017-10-21T03:25:45.567Z,11
2017-10-21T03:26:47.997Z,11
2017-10-21T03:27:50.421Z,11
2017-10-21T03:28:52.848Z,11
2017-10-21T03:29:55.288Z,11
2017-10-21T03:30:57.719Z,11
2017-10-21T03:32:00.141Z,11
2017-10-21T03:33:02.562Z,11
2017-10-21T03:34:04.989Z,11
2017-10-21T03:35:07.415Z,11
2017-10-21T03:36:09.842Z,11
2017-10-21T03:37:12.257Z,11
2017-10-21T03:38:14.691Z,10.9
2017-10-21T03:39:17.130Z,10.9
2017-10-21T03:40:19.560Z,10.9
2017-10-21T03:41:21.994Z,10.9
2017-10-21T03:42:24.415Z,11
2017-10-21T03:43:26.853Z,10.9
2017-10-21T03:44:29.632Z,10.9
2017-10-21T03:45:32.064Z,10.9
2017-10-21T03:46:34.483Z,10.9
2017-10-21T03:47:36.914Z,11
2017-10-21T03:48:39.342Z,10.9
2017-10-21T03:49:42.163Z,11
2017-10-21T03:50:44.585Z,11
2017-10-21T03:51:47.014Z,11
2017-10-21T03:52:49.444Z,11
2017-10-21T03:53:51.880Z,11
2017-10-21T03:54:54.309Z,11
2017-10-21T03:55:56.742Z,11
2017-10-21T03:56:59.166Z,11
2017-10-21T03:58:01.604Z,10.9
2017-10-21T03:59:04.407Z,11
2017-10-21T04:00:06.837Z,11
2017-10-21T04:01:09.272Z,10.9
2017-10-21T04:02:11.708Z,10.9
2017-10-21T04:03:14.115Z,10.9
2017-10-21T04:04:16.575Z,10.9
2017-10-21T04:05:19.357Z,11
2017-10-21T04:06:21.788Z,11
2017-10-21T04:07:24.219Z,10.9
2017-10-21T04:08:26.653Z,10.9
2017-10-21T04:09:29.081Z,10.9
2017-10-21T04:10:31.523Z,10.9
2017-10-21T04:11:33.941Z,10.9
2017-10-21T04:12:36.364Z,10.9
2017-10-21T04:13:38.799Z,10.9
2017-10-21T04:14:41.583Z,10.9
2017-10-21T04:15:44.014Z,10.9
2017-10-21T04:16:46.440Z,10.9
2017-10-21T04:17:48.873Z,10.9
2017-10-21T04:18:51.307Z,10.9
2017-10-21T04:19:53.739Z,11
2017-10-21T04:20:56.513Z,10.9
2017-10-21T04:21:58.955Z,10.9
2017-10-21T04:23:01.386Z,10.9
2017-10-21T04:24:03.810Z,10.9
2017-10-21T04:25:06.238Z,10.9
2017-10-21T04:26:08.664Z,10.9
2017-10-21T04:27:11.094Z,10.9
2017-10-21T04:28:13.517Z,10.9
2017-10-21T04:29:15.941Z,10.9
2017-10-21T04:30:18.368Z,10.9
2017-10-21T04:31:21.141Z,10.9
2017-10-21T04:32:23.568Z,10.9
2017-10-21T04:33:25.994Z,11
2017-10-21T04:34:28.423Z,10.9
2017-10-21T04:35:30.861Z,11
2017-10-21T04:36:33.283Z,10.9
2017-10-21T04:37:35.717Z,10.9
2017-10-21T04:38:38.139Z,10.9
2017-10-21T04:39:40.568Z,10.9
2017-10-21T04:40:42.996Z,10.9
2017-10-21T04:41:45.423Z,10.9
2017-10-21T04:42:47.848Z,10.9
2017-10-21T04:43:50.278Z,11
2017-10-21T04:44:52.705Z,10.9
2017-10-21T04:45:55.117Z,10.9
2017-10-21T04:46:57.555Z,10.9
2017-10-21T04:47:59.985Z,10.9
2017-10-21T04:49:02.413Z,10.9
2017-10-21T04:50:04.842Z,10.9
2017-10-21T04:51:07.271Z,10.9
2017-10-21T04:52:09.704Z,10.9
2017-10-21T04:53:12.131Z,10.9
2017-10-21T04:54:14.553Z,10.9
2017-10-21T04:55:16.971Z,10.9
2017-10-21T04:56:19.402Z,10.9
2017-10-21T04:57:21.830Z,10.9
2017-10-21T04:58:24.253Z,10.9
2017-10-21T04:59:26.684Z,10.9
2017-10-21T05:00:29.113Z,10.9
2017-10-21T05:01:31.552Z,10.9
2017-10-21T05:02:33.970Z,10.9
2017-10-21T05:03:36.788Z,10.9
2017-10-21T05:04:39.220Z,10.9
2017-10-21T05:05:41.643Z,10.9
2017-10-21T05:06:44.072Z,10.9
2017-10-21T05:07:46.498Z,10.9
2017-10-21T05:08:49.270Z,10.9
2017-10-21T05:09:51.716Z,10.9
2017-10-21T05:10:54.140Z,10.9
2017-10-21T05:11:56.568Z,10.9
2017-10-21T05:12:58.996Z,11
2017-10-21T05:14:01.426Z,10.9
2017-10-21T05:15:03.851Z,10.9
2017-10-21T05:16:06.280Z,10.9
2017-10-21T05:17:08.707Z,10.9
2017-10-21T05:18:11.139Z,10.9
2017-10-21T05:19:13.588Z,10.9
2017-10-21T05:20:16.003Z,11
2017-10-21T05:21:18.434Z,10.9
2017-10-21T05:22:20.858Z,10.9
2017-10-21T05:23:23.290Z,10.9
2017-10-21T05:24:25.718Z,10.9
2017-10-21T05:25:28.146Z,10.9
2017-10-21T05:26:30.571Z,10.9
2017-10-21T05:27:33.000Z,10.9
2017-10-21T05:28:35.434Z,10.9
2017-10-21T05:29:37.864Z,10.9
2017-10-21T05:30:40.291Z,10.9
2017-10-21T05:31:42.720Z,10.9
2017-10-21T05:32:45.148Z,10.9
2017-10-21T05:33:47.570Z,10.8
2017-10-21T05:34:50.003Z,10.8
2017-10-21T05:35:52.421Z,10.8
2017-10-21T05:36:54.861Z,10.8
2017-10-21T05:37:57.286Z,10.9
2017-10-21T05:38:59.720Z,10.9
2017-10-21T05:40:02.145Z,10.9
2017-10-21T05:41:04.573Z,10.9
2017-10-21T05:42:06.997Z,10.9
2017-10-21T05:43:09.439Z,10.9
2017-10-21T05:44:11.859Z,10.8
2017-10-21T05:45:14.288Z,10.9
2017-10-21T05:46:16.736Z,10.8
2017-10-21T05:47:19.167Z,10.8
2017-10-21T05:48:21.598Z,10.9
2017-10-21T05:49:24.034Z,10.8
2017-10-21T05:50:26.452Z,10.8
2017-10-21T05:51:28.892Z,10.8
2017-10-21T05:52:31.312Z,10.8
2017-10-21T05:53:33.777Z,10.8
2017-10-21T05:54:36.164Z,10.8
2017-10-21T05:55:38.594Z,10.8
2017-10-21T05:56:41.018Z,10.8
2017-10-21T05:57:43.447Z,10.8
2017-10-21T05:58:45.874Z,10.8
2017-10-21T05:59:48.307Z,10.8
2017-10-21T06:00:50.731Z,10.8
2017-10-21T06:01:53.154Z,10.8
2017-10-21T06:02:55.581Z,10.8
2017-10-21T06:03:58.010Z,10.8
2017-10-21T06:05:00.434Z,10.8
2017-10-21T06:06:02.860Z,10.8
2017-10-21T06:07:05.287Z,10.8
2017-10-21T06:08:07.716Z,10.8
2017-10-21T06:09:10.161Z,10.8
2017-10-21T06:10:12.593Z,10.8
2017-10-21T06:11:15.014Z,10.8
2017-10-21T06:12:17.449Z,10.8
2017-10-21T06:13:19.873Z,10.8
2017-10-21T06:14:22.314Z,10.9
2017-10-21T06:15:24.754Z,10.9
2017-10-21T06:16:27.166Z,10.8
2017-10-21T06:17:29.600Z,10.8
2017-10-21T06:18:32.385Z,10.8
2017-10-21T06:19:34.807Z,10.8
2017-10-21T06:20:37.237Z,10.8
2017-10-21T06:21:39.659Z,10.8
2017-10-21T06:22:42.077Z,10.8
2017-10-21T06:23:44.515Z,10.8
2017-10-21T06:24:47.670Z,10.8
2017-10-21T06:25:50.097Z,10.8
2017-10-21T06:26:52.526Z,10.9
2017-10-21T06:27:54.966Z,10.8
2017-10-21T06:28:57.394Z,10.9
2017-10-21T06:29:59.816Z,10.9
2017-10-21T06:31:02.249Z,10.8
2017-10-21T06:32:04.669Z,10.8
2017-10-21T06:33:07.104Z,10.9
2017-10-21T06:34:09.534Z,10.9
2017-10-21T06:35:12.649Z,10.9
2017-10-21T06:36:15.082Z,10.9
2017-10-21T06:37:17.513Z,10.9
2017-10-21T06:38:19.956Z,10.9
2017-10-21T06:39:22.734Z,10.9
2017-10-21T06:40:25.161Z,10.9
2017-10-21T06:41:27.581Z,10.9
2017-10-21T06:42:30.096Z,10.9
2017-10-21T06:43:32.903Z,11
2017-10-21T06:44:35.697Z,11
2017-10-21T06:45:38.120Z,11.1
2017-10-21T06:46:40.550Z,11.1
2017-10-21T06:47:43.335Z,11.1
2017-10-21T06:48:45.768Z,11.1
2017-10-21T06:49:48.189Z,11.1
2017-10-21T06:50:50.619Z,11.2
2017-10-21T06:51:53.056Z,11.2
2017-10-21T06:52:55.492Z,11.1
2017-10-21T06:53:57.969Z,11.2
2017-10-21T06:55:00.405Z,11.2
2017-10-21T06:56:02.840Z,11.2
2017-10-21T06:57:05.271Z,11.2
2017-10-21T06:58:07.725Z,11.2
2017-10-21T06:59:10.174Z,11.2
2017-10-21T07:00:12.611Z,11.2
2017-10-21T07:01:15.039Z,11.2
2017-10-21T07:02:17.479Z,11.2
2017-10-21T07:03:19.913Z,11.3
2017-10-21T07:04:22.350Z,11.2
2017-10-21T07:05:24.790Z,11.3
2017-10-21T07:06:27.204Z,11.3
2017-10-21T07:07:29.648Z,11.3
2017-10-21T07:08:32.077Z,11.3
2017-10-21T07:09:34.519Z,11.3
2017-10-21T07:10:36.985Z,11.4
2017-10-21T07:11:39.783Z,11.4
2017-10-21T07:12:42.217Z,11.3
2017-10-21T07:13:44.652Z,11.4
2017-10-21T07:14:47.092Z,11.4
2017-10-21T07:15:49.509Z,11.4
2017-10-21T07:16:51.951Z,11.4
2017-10-21T07:17:54.388Z,11.4
2017-10-21T07:18:56.841Z,11.4
2017-10-21T07:19:59.271Z,11.4
2017-10-21T07:21:01.713Z,11.4
2017-10-21T07:22:04.160Z,11.4
2017-10-21T07:23:06.612Z,11.5
2017-10-21T07:24:09.055Z,11.4
2017-10-21T07:25:11.477Z,11.4
2017-10-21T07:26:13.932Z,11.4
2017-10-21T07:27:16.380Z,11.5
2017-10-21T07:28:18.825Z,11.5
2017-10-21T07:29:21.263Z,11.5
2017-10-21T07:30:23.701Z,11.5
2017-10-21T07:31:26.136Z,11.5
2017-10-21T07:32:28.586Z,11.5
2017-10-21T07:33:31.018Z,11.6
2017-10-21T07:34:33.464Z,11.6
2017-10-21T07:35:35.908Z,11.6
2017-10-21T07:36:38.349Z,11.5
2017-10-21T07:37:40.786Z,11.6
2017-10-21T07:38:43.239Z,11.6
2017-10-21T07:39:45.667Z,11.5
2017-10-21T07:40:48.098Z,11.6
2017-10-21T07:41:50.517Z,11.5
2017-10-21T07:42:52.955Z,11.5
2017-10-21T07:43:55.393Z,11.6
2017-10-21T07:44:58.187Z,11.5
2017-10-21T07:46:00.784Z,11.6
2017-10-21T07:47:03.228Z,11.6
2017-10-21T07:48:05.656Z,11.7
2017-10-21T07:49:08.104Z,11.7
2017-10-21T07:50:10.546Z,11.6
2017-10-21T07:51:12.980Z,11.7
2017-10-21T07:52:15.790Z,11.7
2017-10-21T07:53:18.224Z,11.8
2017-10-21T07:54:20.672Z,11.6
2017-10-21T07:55:23.105Z,11.7
2017-10-21T07:56:25.563Z,11.8
2017-10-21T07:57:27.999Z,11.7
2017-10-21T07:58:30.439Z,11.8
2017-10-21T07:59:32.881Z,11.8
2017-10-21T08:00:35.325Z,11.8
2017-10-21T08:01:37.772Z,11.8
2017-10-21T08:02:40.211Z,11.9
2017-10-21T08:03:42.979Z,11.9
2017-10-21T08:04:45.422Z,11.8
2017-10-21T08:05:47.859Z,11.9
2017-10-21T08:06:50.288Z,11.9
2017-10-21T08:07:52.725Z,11.9
2017-10-21T08:08:55.162Z,11.9
2017-10-21T08:09:57.598Z,11.9
2017-10-21T08:11:00.035Z,11.9
2017-10-21T08:12:02.472Z,11.9
2017-10-21T08:13:04.900Z,11.9
2017-10-21T08:14:07.343Z,11.9
2017-10-21T08:15:09.785Z,11.9
2017-10-21T08:16:12.217Z,11.8
2017-10-21T08:17:14.652Z,11.8
2017-10-21T08:18:17.092Z,11.9
2017-10-21T08:19:19.519Z,11.9
2017-10-21T08:21:06.757Z,11.9
2017-10-21T08:22:09.147Z,11.9
2017-10-21T08:23:11.522Z,12
2017-10-21T08:24:13.906Z,12
2017-10-21T08:25:16.290Z,12
2017-10-21T08:26:18.663Z,12
2017-10-21T08:27:21.037Z,12
2017-10-21T08:28:23.414Z,12
2017-10-21T08:29:25.787Z,12
2017-10-21T08:30:28.168Z,11.9
2017-10-21T08:31:30.541Z,12
2017-10-21T08:32:32.926Z,12
2017-10-21T08:33:35.306Z,11.9
2017-10-21T08:34:37.692Z,12
2017-10-21T08:35:40.423Z,12
2017-10-21T08:36:42.812Z,12
2017-10-21T08:37:45.189Z,11.9
2017-10-21T08:38:47.567Z,12
2017-10-21T08:39:49.930Z,12
2017-10-21T08:40:52.319Z,12
2017-10-21T08:41:54.699Z,12
2017-10-21T08:42:57.072Z,12
2017-10-21T08:43:59.448Z,12
2017-10-21T08:45:02.178Z,11.9
2017-10-21T08:46:04.545Z,11.9
2017-10-21T08:47:06.942Z,12
2017-10-21T08:48:09.308Z,11.9
2017-10-21T08:49:11.690Z,11.9
2017-10-21T08:50:14.076Z,11.9
2017-10-21T08:51:16.442Z,11.9
2017-10-21T08:52:18.823Z,11.9
2017-10-21T08:53:21.207Z,11.9
2017-10-21T08:54:23.573Z,12
2017-10-21T08:55:25.952Z,12
2017-10-21T08:56:28.335Z,11.9
2017-10-21T08:57:30.713Z,11.9
2017-10-21T08:58:33.130Z,12
2017-10-21T08:59:35.559Z,12
2017-10-21T09:00:38.710Z,12
2017-10-21T09:01:41.136Z,12
2017-10-21T09:02:43.576Z,12.1
2017-10-21T09:03:46.014Z,12
2017-10-21T09:04:48.448Z,12
2017-10-21T09:05:50.873Z,12
2017-10-21T09:06:53.306Z,12
2017-10-21T09:07:56.103Z,12
2017-10-21T09:08:58.538Z,12
2017-10-21T09:10:00.994Z,12
2017-10-21T09:11:03.422Z,12.1
2017-10-21T09:12:06.317Z,12.2
2017-10-21T09:13:08.755Z,12.2
2017-10-21T09:14:11.183Z,12.2
2017-10-21T09:15:13.854Z,12.2
2017-10-21T09:16:16.309Z,12.2
2017-10-21T09:17:18.961Z,12.1
2017-10-21T09:18:22.122Z,12.1
2017-10-21T09:19:24.559Z,12.2
2017-10-21T09:20:27.215Z,12.2
2017-10-21T09:21:29.657Z,12.2
2017-10-21T09:22:32.092Z,12.2
2017-10-21T09:23:34.519Z,12.2
2017-10-21T09:24:36.951Z,12.2
2017-10-21T09:25:39.389Z,12.2
2017-10-21T09:26:41.927Z,12.2
2017-10-21T09:27:44.351Z,12.2
2017-10-21T09:28:46.799Z,12.2
2017-10-21T09:29:49.236Z,12.3
2017-10-21T09:30:51.678Z,12.3
2017-10-21T09:31:54.117Z,12.3
2017-10-21T09:32:56.554Z,12.3
2017-10-21T09:33:58.989Z,12.4
2017-10-21T09:35:01.451Z,12.3
2017-10-21T09:36:04.003Z,12.4
2017-10-21T09:37:06.437Z,12.4
2017-10-21T09:38:08.882Z,12.4
2017-10-21T09:39:11.318Z,12.5
2017-10-21T09:40:13.746Z,12.4
2017-10-21T09:41:16.182Z,12.5
2017-10-21T09:42:18.621Z,12.6
2017-10-21T09:43:21.026Z,12.6
2017-10-21T09:44:23.423Z,12.6
2017-10-21T09:45:25.822Z,12.6
2017-10-21T09:46:28.222Z,12.6
2017-10-21T09:47:30.619Z,12.7
2017-10-21T09:48:33.009Z,12.7
2017-10-21T09:49:35.416Z,12.7
2017-10-21T09:50:37.824Z,12.7
2017-10-21T09:51:40.215Z,12.7
2017-10-21T09:52:42.613Z,12.7
2017-10-21T09:53:49.293Z,12.7
2017-10-21T09:54:55.324Z,12.7
2017-10-21T09:56:01.801Z,12.7
2017-10-21T09:57:10.878Z,12.7
2017-10-21T09:58:16.205Z,12.7
2017-10-21T09:59:21.143Z,12.7
2017-10-21T10:00:30.897Z,12.7
2017-10-21T10:01:38.760Z,12.7
2017-10-21T10:02:47.593Z,12.7
2017-10-21T10:03:55.730Z,12.8
2017-10-21T10:05:04.624Z,12.8
2017-10-21T10:06:13.384Z,12.9
2017-10-21T10:07:23.698Z,12.9
2017-10-21T10:08:34.408Z,12.9
2017-10-21T10:09:44.489Z,12.9
2017-10-21T10:10:52.707Z,12.9
2017-10-21T10:12:02.112Z,13
2017-10-21T10:13:12.254Z,13
2017-10-21T10:14:21.135Z,13.1
2017-10-21T10:15:28.654Z,13
2017-10-21T10:16:39.051Z,13
2017-10-21T10:17:43.964Z,13
2017-10-21T10:18:51.871Z,13
2017-10-21T10:20:00.617Z,13.1
2017-10-21T10:21:08.773Z,13.2
2017-10-21T10:22:13.467Z,13.2
2017-10-21T10:23:15.857Z,13.2
2017-10-21T10:24:18.258Z,13.2
2017-10-21T10:25:20.668Z,13.2
2017-10-21T10:26:23.050Z,13.2
2017-10-21T10:27:25.444Z,13.2
2017-10-21T10:28:27.843Z,13.2
2017-10-21T10:29:30.241Z,13.2
2017-10-21T10:30:32.643Z,13.3
2017-10-21T10:31:35.036Z,13.3
2017-10-21T10:32:37.433Z,13.4
2017-10-21T10:33:39.839Z,13.4
2017-10-21T10:34:42.234Z,13.4
2017-10-21T10:35:44.632Z,13.5
2017-10-21T10:36:47.029Z,13.5
2017-10-21T10:37:49.426Z,13.5
2017-10-21T10:38:51.823Z,13.6
2017-10-21T10:39:54.220Z,13.6
2017-10-21T10:40:56.625Z,13.7
2017-10-21T10:41:59.023Z,13.6
2017-10-21T10:43:01.422Z,13.6
2017-10-21T10:44:03.827Z,13.7
2017-10-21T10:45:06.232Z,13.7
2017-10-21T10:46:08.633Z,13.8
2017-10-21T10:47:11.030Z,13.8
2017-10-21T10:48:13.430Z,13.8
2017-10-21T10:49:15.827Z,13.8
2017-10-21T10:50:18.227Z,13.8
2017-10-21T10:51:20.650Z,13.7
2017-10-21T10:52:23.025Z,13.8
2017-10-21T10:53:25.427Z,13.8
2017-10-21T10:54:28.194Z,13.8
2017-10-21T10:55:30.598Z,13.8
2017-10-21T10:56:32.995Z,13.8
2017-10-21T10:57:35.393Z,13.8
2017-10-21T10:58:37.786Z,13.9
2017-10-21T10:59:40.187Z,14
2017-10-21T11:00:42.584Z,14
2017-10-21T11:01:44.982Z,14.1
2017-10-21T11:02:47.378Z,14
2017-10-21T11:03:50.503Z,14.1
2017-10-21T11:04:52.899Z,14
2017-10-21T11:05:55.293Z,14.1
2017-10-21T11:06:57.693Z,14.1
2017-10-21T11:08:00.098Z,14
2017-10-21T11:09:53.793Z,14.1
2017-10-21T11:10:56.148Z,14.1
2017-10-21T11:11:58.508Z,14.2
2017-10-21T11:13:00.862Z,14.2
2017-10-21T11:14:03.235Z,14.2
2017-10-21T11:15:05.595Z,14.2
2017-10-21T11:16:07.955Z,14.3
2017-10-21T11:17:10.302Z,14.4
2017-10-21T11:18:12.667Z,14.4
2017-10-21T11:19:15.025Z,14.4
2017-10-21T11:20:17.380Z,14.4
2017-10-21T11:21:20.081Z,14.4
2017-10-21T11:22:22.438Z,14.4
2017-10-21T11:23:24.793Z,14.5
2017-10-21T11:24:27.496Z,14.5
2017-10-21T11:25:30.204Z,14.5
2017-10-21T11:26:32.562Z,14.4
2017-10-21T11:27:34.916Z,14.3
2017-10-21T11:28:37.279Z,14.3
2017-10-21T11:29:39.631Z,14.3
2017-10-21T11:30:41.985Z,14.3
2017-10-21T11:31:44.340Z,14.2
2017-10-21T11:32:46.697Z,14.3
2017-10-21T11:33:49.055Z,14.3
2017-10-21T11:35:36.301Z,14.4
2017-10-21T11:36:39.070Z,14.4
2017-10-21T11:37:41.467Z,14.5
2017-10-21T11:38:43.869Z,14.6
2017-10-21T11:39:46.269Z,14.6
2017-10-21T11:40:48.671Z,14.6
2017-10-21T11:41:51.074Z,14.6
2017-10-21T11:42:53.476Z,14.7
2017-10-21T11:43:55.879Z,14.7
2017-10-21T11:44:58.280Z,14.6
2017-10-21T11:46:00.682Z,14.5
2017-10-21T11:47:03.081Z,14.5
2017-10-21T11:48:05.481Z,14.5
2017-10-21T11:49:07.874Z,14.6
2017-10-21T11:50:10.273Z,14.6
2017-10-21T11:51:12.683Z,14.5
2017-10-21T11:52:15.749Z,14.5
2017-10-21T11:53:18.321Z,14.5
2017-10-21T11:54:22.715Z,14.5
2017-10-21T11:55:27.689Z,14.4
2017-10-21T11:56:30.088Z,14.4
2017-10-21T11:57:32.535Z,14.4
2017-10-21T11:58:34.932Z,14.3
2017-10-21T11:59:37.438Z,14.4
2017-10-21T12:00:39.875Z,14.4
2017-10-21T12:01:42.271Z,14.4
2017-10-21T12:02:44.670Z,14.4
2017-10-21T12:03:47.083Z,14.4
2017-10-21T12:04:49.521Z,14.5
2017-10-21T12:05:51.924Z,14.5
2017-10-21T12:06:54.783Z,14.6
2017-10-21T12:07:57.403Z,14.4
2017-10-21T12:08:59.801Z,14.5
2017-10-21T12:10:02.206Z,14.4
2017-10-21T12:11:04.993Z,14.5
2017-10-21T12:12:07.401Z,14.5
2017-10-21T12:13:09.948Z,14.6
2017-10-21T12:14:12.702Z,14.6
2017-10-21T12:15:15.101Z,14.4
2017-10-21T12:16:17.499Z,14.4
2017-10-21T12:17:19.896Z,14.4
2017-10-21T12:18:22.302Z,14.4
2017-10-21T12:19:24.801Z,14.4
2017-10-21T12:20:27.196Z,14.4
2017-10-21T12:21:29.639Z,14.4
2017-10-21T12:22:32.038Z,14.4
2017-10-21T12:23:34.788Z,14.3
2017-10-21T12:24:37.572Z,14.4
2017-10-21T12:25:39.969Z,14.4
2017-10-21T12:26:42.384Z,14.4
2017-10-21T12:27:44.781Z,14.4
2017-10-21T12:28:47.185Z,14.3
2017-10-21T12:29:49.605Z,14.4
2017-10-21T12:30:52.088Z,14.3
2017-10-21T12:31:54.480Z,14.3
2017-10-21T12:32:57.224Z,14.2
2017-10-21T12:33:59.622Z,14.3
2017-10-21T12:35:02.023Z,14.2
2017-10-21T12:36:04.448Z,14.2
2017-10-21T12:37:06.835Z,14.2
2017-10-21T12:38:09.234Z,14.2
2017-10-21T12:39:11.635Z,14.2
2017-10-21T12:40:14.033Z,14.2
2017-10-21T12:41:16.431Z,14.3
2017-10-21T12:42:18.833Z,14.2
2017-10-21T12:43:21.231Z,14.2
2017-10-21T12:44:23.630Z,14.2
2017-10-21T12:45:26.046Z,14.2
2017-10-21T12:46:28.797Z,14.1
2017-10-21T12:47:31.194Z,14.1
2017-10-21T12:48:33.615Z,14.2
2017-10-21T12:49:36.022Z,14.1
2017-10-21T12:50:38.425Z,14.1
2017-10-21T12:51:40.824Z,14.3
2017-10-21T12:52:43.223Z,14.3
2017-10-21T12:53:45.970Z,14.3
2017-10-21T12:54:48.451Z,14.3
2017-10-21T12:55:50.872Z,14.3
2017-10-21T12:56:53.280Z,14.2
2017-10-21T12:57:55.687Z,14.2
2017-10-21T12:58:58.432Z,14.3
2017-10-21T13:00:00.834Z,14.2
2017-10-21T13:01:03.231Z,14.2
2017-10-21T13:02:05.626Z,14.2
2017-10-21T13:03:08.022Z,14.2
2017-10-21T13:04:10.419Z,14.2
2017-10-21T13:05:12.821Z,14.2
2017-10-21T13:06:15.216Z,14.1
2017-10-21T13:07:17.618Z,14.1
2017-10-21T13:08:20.017Z,14.1
2017-10-21T13:09:22.769Z,14.2
2017-10-21T13:10:25.169Z,14.2
2017-10-21T13:11:27.567Z,14.1
2017-10-21T13:12:29.974Z,14.2
2017-10-21T13:13:32.370Z,14.1
2017-10-21T13:14:34.784Z,14.1
2017-10-21T13:15:37.195Z,14.1
2017-10-21T13:16:39.608Z,14.1
2017-10-21T13:17:42.034Z,14.1
2017-10-21T13:18:44.438Z,14.1
2017-10-21T13:19:46.847Z,14
2017-10-21T13:20:49.260Z,14.1
2017-10-21T13:21:51.661Z,14.1
2017-10-21T13:22:54.058Z,14.1
2017-10-21T13:23:56.824Z,14
2017-10-21T13:24:59.236Z,14
2017-10-21T13:26:01.638Z,14
2017-10-21T13:27:04.037Z,14
2017-10-21T13:28:06.429Z,14
2017-10-21T13:29:08.839Z,14.1
2017-10-21T13:30:11.252Z,14.1
2017-10-21T13:31:13.641Z,14.1
2017-10-21T13:32:16.047Z,14
2017-10-21T13:33:18.448Z,14
2017-10-21T13:34:21.909Z,13.9
2017-10-21T13:35:24.587Z,13.8
2017-10-21T13:36:26.987Z,13.8
2017-10-21T13:37:29.381Z,13.9
2017-10-21T13:38:31.789Z,13.9
2017-10-21T13:39:34.200Z,13.9
2017-10-21T13:40:36.597Z,13.8
2017-10-21T13:41:38.997Z,13.8
2017-10-21T13:42:41.509Z,13.9
2017-10-21T13:43:43.912Z,13.9
2017-10-21T13:44:46.308Z,13.9
2017-10-21T13:45:49.089Z,13.9
2017-10-21T13:46:51.490Z,13.9
2017-10-21T13:47:53.932Z,13.9
2017-10-21T13:48:56.375Z,13.9
2017-10-21T13:49:58.782Z,13.9
2017-10-21T13:51:01.181Z,13.9
2017-10-21T13:52:03.577Z,13.9
2017-10-21T13:53:05.979Z,13.9
2017-10-21T13:54:08.511Z,13.9
2017-10-21T13:55:10.921Z,13.9
2017-10-21T13:56:13.320Z,13.9
2017-10-21T13:57:15.725Z,13.8
2017-10-21T13:58:18.124Z,13.8
2017-10-21T13:59:20.526Z,13.8
2017-10-21T14:00:22.924Z,13.8
2017-10-21T14:01:25.323Z,13.8
2017-10-21T14:02:28.508Z,13.8
2017-10-21T14:03:30.919Z,13.8
2017-10-21T14:04:33.313Z,13.8
2017-10-21T14:05:35.712Z,13.8
2017-10-21T14:06:38.107Z,13.8